CheckWX is a tool to help pilots better visualize weather data.  It is not intended as a substitute for an official pre-flight weather briefing.

07:33:23 UTC

KLVK TAF
Livermore Municipal Airport
Livermore, California, USA
KLVK 180525Z 1806/1906 VRB03KT P6SM SKC WS020/28025KT FM180800 00000KT P6SM SCT030 BKN100 WS020/28025KT FM181400 22005KT P6SM VCSH SCT020 BKN040 FM181900 26014KT P6SM SCT025 SCT050 FM190300 26008KT P6SM FEW025

Sep-18@
06:00 UTC

Sep-18 @ 06:00 UTC

Sep-18@
08:00 UTC

Sep-18 @ 08:00 UTC

KLVK 180525Z 1806/1906 VRB03KT P6SM SKC WS020/28025KT
Wind
  • Variable at 3 KTS
Cloud Levels
  • Clear skies

Sep-18@
08:00 UTC

Sep-18 @ 08:00 UTC

Sep-18@
14:00 UTC

Sep-18 @ 14:00 UTC

FM180800 00000KT P6SM SCT030 BKN100 WS020/28025KT

From

From Standard forecast or significant change

Cloud Levels
  • Scattered at 3,000' AGL
  • Broken at 10,000' AGL

Sep-18@
14:00 UTC

Sep-18 @ 14:00 UTC

Sep-18@
19:00 UTC

Sep-18 @ 19:00 UTC

FM181400 22005KT P6SM VCSH SCT020 BKN040

From

From Standard forecast or significant change

Wind
  • 220° at 5 KTS
Cloud Levels
  • Scattered at 2,000' AGL
  • Broken at 4,000' AGL

Sep-18@
19:00 UTC

Sep-18 @ 19:00 UTC

Sep-19@
03:00 UTC

Sep-19 @ 03:00 UTC

FM181900 26014KT P6SM SCT025 SCT050

From

From Standard forecast or significant change

Wind
  • 260° at 14 KTS
Cloud Levels
  • Scattered at 2,500' AGL
  • Scattered at 5,000' AGL

Sep-19@
03:00 UTC

Sep-19 @ 03:00 UTC

Sep-19@
06:00 UTC

Sep-19 @ 06:00 UTC

FM190300 26008KT P6SM FEW025

From

From Standard forecast or significant change

Wind
  • 260° at 8 KTS
Cloud Levels
  • Few at 2,500' AGL